sensor_id;sensor_type;location;lat;lon;timestamp;P1;durP1;ratioP1;P2;durP2;ratioP2
68803;SDS011;55787;52.678;13.314;2023-03-01T00:00:08;12.43;;;3.97;;
68803;SDS011;55787;52.678;13.314;2023-03-01T00:02:37;14.85;;;3.75;;
68803;SDS011;55787;52.678;13.314;2023-03-01T00:05:04;12.60;;;3.70;;
68803;SDS011;55787;52.678;13.314;2023-03-01T00:07:31;13.15;;;3.67;;
68803;SDS011;55787;52.678;13.314;2023-03-01T00:09:57;12.75;;;3.80;;
68803;SDS011;55787;52.678;13.314;2023-03-01T00:12:24;13.35;;;4.03;;
68803;SDS011;55787;52.678;13.314;2023-03-01T00:14:50;15.05;;;3.83;;
68803;SDS011;55787;52.678;13.314;2023-03-01T00:17:17;12.00;;;3.70;;
68803;SDS011;55787;52.678;13.314;2023-03-01T00:19:44;12.57;;;4.20;;
68803;SDS011;55787;52.678;13.314;2023-03-01T00:22:10;14.85;;;4.60;;
68803;SDS011;55787;52.678;13.314;2023-03-01T00:24:37;14.43;;;4.60;;
68803;SDS011;55787;52.678;13.314;2023-03-01T00:27:03;14.93;;;4.80;;
68803;SDS011;55787;52.678;13.314;2023-03-01T00:29:30;18.23;;;6.87;;
68803;SDS011;55787;52.678;13.314;2023-03-01T00:31:57;21.90;;;7.97;;
68803;SDS011;55787;52.678;13.314;2023-03-01T00:34:23;21.13;;;7.95;;
68803;SDS011;55787;52.678;13.314;2023-03-01T00:36:50;19.45;;;7.40;;
68803;SDS011;55787;52.678;13.314;2023-03-01T00:39:16;17.30;;;6.57;;
68803;SDS011;55787;52.678;13.314;2023-03-01T00:41:43;18.77;;;5.50;;
68803;SDS011;55787;52.678;13.314;2023-03-01T00:44:10;19.17;;;5.18;;
68803;SDS011;55787;52.678;13.314;2023-03-01T00:46:37;18.10;;;5.20;;
68803;SDS011;55787;52.678;13.314;2023-03-01T00:49:05;16.98;;;5.47;;
68803;SDS011;55787;52.678;13.314;2023-03-01T00:51:32;18.92;;;5.70;;
68803;SDS011;55787;52.678;13.314;2023-03-01T00:54:00;19.90;;;5.00;;
68803;SDS011;55787;52.678;13.314;2023-03-01T00:56:28;19.13;;;5.00;;
68803;SDS011;55787;52.678;13.314;2023-03-01T00:58:56;17.90;;;4.63;;
68803;SDS011;55787;52.678;13.314;2023-03-01T01:01:24;18.33;;;4.90;;
68803;SDS011;55787;52.678;13.314;2023-03-01T01:04:00;16.20;;;4.47;;
68803;SDS011;55787;52.678;13.314;2023-03-01T01:06:30;15.37;;;3.93;;
68803;SDS011;55787;52.678;13.314;2023-03-01T01:08:58;14.95;;;4.40;;
68803;SDS011;55787;52.678;13.314;2023-03-01T01:11:26;15.20;;;4.15;;
68803;SDS011;55787;52.678;13.314;2023-03-01T01:13:55;16.45;;;4.15;;
68803;SDS011;55787;52.678;13.314;2023-03-01T01:16:23;16.60;;;4.47;;
68803;SDS011;55787;52.678;13.314;2023-03-01T01:18:51;16.43;;;4.00;;
68803;SDS011;55787;52.678;13.314;2023-03-01T01:21:19;14.05;;;3.53;;
68803;SDS011;55787;52.678;13.314;2023-03-01T01:23:48;13.65;;;3.38;;
68803;SDS011;55787;52.678;13.314;2023-03-01T01:26:16;13.98;;;3.22;;
68803;SDS011;55787;52.678;13.314;2023-03-01T01:28:48;12.63;;;3.47;;
68803;SDS011;55787;52.678;13.314;2023-03-01T01:31:14;13.77;;;3.50;;
68803;SDS011;55787;52.678;13.314;2023-03-01T01:33:41;11.85;;;3.42;;
68803;SDS011;55787;52.678;13.314;2023-03-01T01:36:08;13.60;;;3.35;;
68803;SDS011;55787;52.678;13.314;2023-03-01T01:38:36;14.32;;;3.65;;
68803;SDS011;55787;52.678;13.314;2023-03-01T01:41:04;16.80;;;3.75;;
68803;SDS011;55787;52.678;13.314;2023-03-01T01:43:35;16.90;;;3.70;;
68803;SDS011;55787;52.678;13.314;2023-03-01T01:46:05;16.05;;;4.00;;
68803;SDS011;55787;52.678;13.314;2023-03-01T01:48:40;16.60;;;4.15;;
68803;SDS011;55787;52.678;13.314;2023-03-01T01:51:13;14.68;;;4.10;;
68803;SDS011;55787;52.678;13.314;2023-03-01T01:53:45;12.90;;;3.38;;
68803;SDS011;55787;52.678;13.314;2023-03-01T01:56:15;12.93;;;3.33;;
68803;SDS011;55787;52.678;13.314;2023-03-01T01:58:44;14.45;;;3.90;;
68803;SDS011;55787;52.678;13.314;2023-03-01T02:01:13;13.95;;;3.75;;
68803;SDS011;55787;52.678;13.314;2023-03-01T02:03:40;14.20;;;3.63;;
68803;SDS011;55787;52.678;13.314;2023-03-01T02:08:36;13.27;;;3.33;;
68803;SDS011;55787;52.678;13.314;2023-03-01T02:11:05;13.20;;;3.10;;
68803;SDS011;55787;52.678;13.314;2023-03-01T02:13:32;11.48;;;3.17;;
68803;SDS011;55787;52.678;13.314;2023-03-01T02:16:04;11.63;;;3.08;;
68803;SDS011;55787;52.678;13.314;2023-03-01T02:18:34;12.23;;;3.08;;
68803;SDS011;55787;52.678;13.314;2023-03-01T02:23:53;14.65;;;3.25;;
68803;SDS011;55787;52.678;13.314;2023-03-01T02:26:41;12.32;;;3.20;;
68803;SDS011;55787;52.678;13.314;2023-03-01T02:29:11;11.68;;;2.70;;
68803;SDS011;55787;52.678;13.314;2023-03-01T02:31:38;13.70;;;3.40;;
68803;SDS011;55787;52.678;13.314;2023-03-01T02:34:09;11.07;;;2.83;;
68803;SDS011;55787;52.678;13.314;2023-03-01T02:36:49;12.20;;;2.65;;
68803;SDS011;55787;52.678;13.314;2023-03-01T02:39:28;10.63;;;3.05;;
68803;SDS011;55787;52.678;13.314;2023-03-01T02:41:59;12.90;;;3.05;;
68803;SDS011;55787;52.678;13.314;2023-03-01T02:44:28;10.68;;;3.20;;
68803;SDS011;55787;52.678;13.314;2023-03-01T02:46:55;12.20;;;3.17;;
68803;SDS011;55787;52.678;13.314;2023-03-01T02:49:24;12.77;;;3.47;;
68803;SDS011;55787;52.678;13.314;2023-03-01T02:55:01;12.88;;;3.20;;
68803;SDS011;55787;52.678;13.314;2023-03-01T02:57:31;12.13;;;2.83;;
68803;SDS011;55787;52.678;13.314;2023-03-01T03:00:01;12.30;;;3.40;;
68803;SDS011;55787;52.678;13.314;2023-03-01T03:02:33;12.02;;;2.83;;
68803;SDS011;55787;52.678;13.314;2023-03-01T03:05:08;11.98;;;3.03;;
68803;SDS011;55787;52.678;13.314;2023-03-01T03:07:38;12.98;;;2.90;;
68803;SDS011;55787;52.678;13.314;2023-03-01T03:10:08;12.38;;;3.30;;
68803;SDS011;55787;52.678;13.314;2023-03-01T03:12:40;11.93;;;3.10;;
68803;SDS011;55787;52.678;13.314;2023-03-01T03:15:08;12.07;;;3.00;;
68803;SDS011;55787;52.678;13.314;2023-03-01T03:17:36;11.68;;;3.42;;
68803;SDS011;55787;52.678;13.314;2023-03-01T03:20:05;11.80;;;3.22;;
68803;SDS011;55787;52.678;13.314;2023-03-01T03:22:40;13.52;;;3.00;;
68803;SDS011;55787;52.678;13.314;2023-03-01T03:25:07;10.90;;;3.20;;
68803;SDS011;55787;52.678;13.314;2023-03-01T03:27:41;13.02;;;3.22;;
68803;SDS011;55787;52.678;13.314;2023-03-01T03:30:11;13.18;;;3.38;;
68803;SDS011;55787;52.678;13.314;2023-03-01T03:32:42;10.60;;;2.88;;
68803;SDS011;55787;52.678;13.314;2023-03-01T03:35:23;11.77;;;3.13;;
68803;SDS011;55787;52.678;13.314;2023-03-01T03:37:52;12.83;;;3.20;;
68803;SDS011;55787;52.678;13.314;2023-03-01T03:40:38;11.30;;;2.95;;
68803;SDS011;55787;52.678;13.314;2023-03-01T03:43:07;11.77;;;3.05;;
68803;SDS011;55787;52.678;13.314;2023-03-01T03:45:38;11.15;;;3.17;;
68803;SDS011;55787;52.678;13.314;2023-03-01T03:48:05;12.38;;;2.97;;
68803;SDS011;55787;52.678;13.314;2023-03-01T03:50:34;11.83;;;3.10;;
68803;SDS011;55787;52.678;13.314;2023-03-01T03:53:01;12.45;;;2.90;;
68803;SDS011;55787;52.678;13.314;2023-03-01T03:55:28;10.30;;;2.95;;
68803;SDS011;55787;52.678;13.314;2023-03-01T03:57:57;12.05;;;3.08;;
68803;SDS011;55787;52.678;13.314;2023-03-01T04:00:28;12.63;;;2.75;;
68803;SDS011;55787;52.678;13.314;2023-03-01T04:02:54;11.03;;;2.87;;
68803;SDS011;55787;52.678;13.314;2023-03-01T04:05:22;11.68;;;2.70;;
68803;SDS011;55787;52.678;13.314;2023-03-01T04:07:49;11.95;;;3.03;;
68803;SDS011;55787;52.678;13.314;2023-03-01T04:10:28;12.43;;;2.85;;
68803;SDS011;55787;52.678;13.314;2023-03-01T04:12:56;13.98;;;3.30;;
68803;SDS011;55787;52.678;13.314;2023-03-01T04:15:26;11.57;;;3.00;;
68803;SDS011;55787;52.678;13.314;2023-03-01T04:17:54;13.10;;;3.15;;
68803;SDS011;55787;52.678;13.314;2023-03-01T04:20:23;10.63;;;3.03;;
68803;SDS011;55787;52.678;13.314;2023-03-01T04:22:52;10.95;;;2.63;;
68803;SDS011;55787;52.678;13.314;2023-03-01T04:25:26;9.85;;;2.70;;
68803;SDS011;55787;52.678;13.314;2023-03-01T04:27:52;12.80;;;2.70;;
68803;SDS011;55787;52.678;13.314;2023-03-01T04:30:19;10.02;;;2.58;;
68803;SDS011;55787;52.678;13.314;2023-03-01T04:32:46;10.43;;;3.13;;
68803;SDS011;55787;52.678;13.314;2023-03-01T04:35:13;10.93;;;3.33;;
68803;SDS011;55787;52.678;13.314;2023-03-01T04:37:40;11.80;;;2.83;;
68803;SDS011;55787;52.678;13.314;2023-03-01T04:40:08;10.10;;;2.70;;
68803;SDS011;55787;52.678;13.314;2023-03-01T04:42:43;11.85;;;2.88;;
68803;SDS011;55787;52.678;13.314;2023-03-01T04:45:11;10.88;;;2.67;;
68803;SDS011;55787;52.678;13.314;2023-03-01T04:47:40;11.57;;;2.63;;
68803;SDS011;55787;52.678;13.314;2023-03-01T04:50:09;10.95;;;3.08;;
68803;SDS011;55787;52.678;13.314;2023-03-01T04:52:37;15.03;;;3.10;;
68803;SDS011;55787;52.678;13.314;2023-03-01T04:55:04;11.52;;;2.80;;
68803;SDS011;55787;52.678;13.314;2023-03-01T04:57:31;12.15;;;2.75;;
68803;SDS011;55787;52.678;13.314;2023-03-01T04:59:59;11.70;;;3.00;;
68803;SDS011;55787;52.678;13.314;2023-03-01T05:02:25;14.02;;;3.65;;
68803;SDS011;55787;52.678;13.314;2023-03-01T05:04:52;11.93;;;3.37;;
68803;SDS011;55787;52.678;13.314;2023-03-01T05:07:23;13.27;;;3.28;;
68803;SDS011;55787;52.678;13.314;2023-03-01T05:10:04;14.10;;;3.58;;
68803;SDS011;55787;52.678;13.314;2023-03-01T05:12:32;12.50;;;3.25;;
68803;SDS011;55787;52.678;13.314;2023-03-01T05:15:00;12.48;;;3.10;;
68803;SDS011;55787;52.678;13.314;2023-03-01T05:17:26;12.03;;;3.13;;
68803;SDS011;55787;52.678;13.314;2023-03-01T05:19:54;11.82;;;3.15;;
68803;SDS011;55787;52.678;13.314;2023-03-01T05:22:23;13.27;;;3.20;;
68803;SDS011;55787;52.678;13.314;2023-03-01T05:24:49;12.35;;;3.20;;
68803;SDS011;55787;52.678;13.314;2023-03-01T05:27:18;15.00;;;3.60;;
68803;SDS011;55787;52.678;13.314;2023-03-01T05:29:48;15.67;;;3.90;;
68803;SDS011;55787;52.678;13.314;2023-03-01T05:32:15;14.90;;;3.53;;
68803;SDS011;55787;52.678;13.314;2023-03-01T05:34:43;16.65;;;3.15;;
68803;SDS011;55787;52.678;13.314;2023-03-01T05:37:13;11.15;;;3.10;;
68803;SDS011;55787;52.678;13.314;2023-03-01T05:39:41;11.63;;;3.10;;
68803;SDS011;55787;52.678;13.314;2023-03-01T05:42:10;12.83;;;3.20;;
68803;SDS011;55787;52.678;13.314;2023-03-01T05:44:37;12.23;;;3.10;;
68803;SDS011;55787;52.678;13.314;2023-03-01T05:47:06;13.18;;;3.35;;
68803;SDS011;55787;52.678;13.314;2023-03-01T05:49:33;15.30;;;3.80;;
68803;SDS011;55787;52.678;13.314;2023-03-01T05:52:03;13.52;;;3.40;;
68803;SDS011;55787;52.678;13.314;2023-03-01T05:54:30;11.57;;;3.40;;
68803;SDS011;55787;52.678;13.314;2023-03-01T05:56:58;12.18;;;3.22;;
68803;SDS011;55787;52.678;13.314;2023-03-01T05:59:25;13.35;;;3.20;;
68803;SDS011;55787;52.678;13.314;2023-03-01T06:01:51;12.40;;;3.25;;
68803;SDS011;55787;52.678;13.314;2023-03-01T06:04:18;12.32;;;3.47;;
68803;SDS011;55787;52.678;13.314;2023-03-01T06:06:44;11.23;;;3.17;;
68803;SDS011;55787;52.678;13.314;2023-03-01T06:09:11;13.93;;;5.00;;
68803;SDS011;55787;52.678;13.314;2023-03-01T06:11:38;15.50;;;4.40;;
68803;SDS011;55787;52.678;13.314;2023-03-01T06:14:05;14.27;;;4.53;;
68803;SDS011;55787;52.678;13.314;2023-03-01T06:16:32;15.02;;;4.90;;
68803;SDS011;55787;52.678;13.314;2023-03-01T06:18:59;16.30;;;5.33;;
68803;SDS011;55787;52.678;13.314;2023-03-01T06:21:26;15.57;;;5.28;;
68803;SDS011;55787;52.678;13.314;2023-03-01T06:23:52;17.95;;;4.93;;
68803;SDS011;55787;52.678;13.314;2023-03-01T06:26:19;14.73;;;4.70;;
68803;SDS011;55787;52.678;13.314;2023-03-01T06:28:46;17.13;;;4.85;;
68803;SDS011;55787;52.678;13.314;2023-03-01T06:31:13;12.50;;;4.33;;
68803;SDS011;55787;52.678;13.314;2023-03-01T06:33:39;14.15;;;4.70;;
68803;SDS011;55787;52.678;13.314;2023-03-01T06:36:06;19.05;;;4.75;;
68803;SDS011;55787;52.678;13.314;2023-03-01T06:38:33;16.92;;;5.00;;
68803;SDS011;55787;52.678;13.314;2023-03-01T06:41:00;18.85;;;4.75;;
68803;SDS011;55787;52.678;13.314;2023-03-01T06:43:28;22.80;;;5.63;;
68803;SDS011;55787;52.678;13.314;2023-03-01T06:45:54;18.15;;;5.05;;
68803;SDS011;55787;52.678;13.314;2023-03-01T06:48:21;16.88;;;5.15;;
68803;SDS011;55787;52.678;13.314;2023-03-01T06:50:48;21.50;;;6.88;;
68803;SDS011;55787;52.678;13.314;2023-03-01T06:53:15;35.42;;;8.98;;
68803;SDS011;55787;52.678;13.314;2023-03-01T06:55:41;40.77;;;11.00;;
68803;SDS011;55787;52.678;13.314;2023-03-01T06:58:08;40.85;;;10.63;;
68803;SDS011;55787;52.678;13.314;2023-03-01T07:00:35;49.03;;;12.23;;
68803;SDS011;55787;52.678;13.314;2023-03-01T07:03:02;55.10;;;15.13;;
68803;SDS011;55787;52.678;13.314;2023-03-01T07:05:29;48.67;;;12.25;;
68803;SDS011;55787;52.678;13.314;2023-03-01T07:07:57;34.53;;;10.43;;
68803;SDS011;55787;52.678;13.314;2023-03-01T07:10:23;28.95;;;9.38;;
68803;SDS011;55787;52.678;13.314;2023-03-01T07:12:53;32.17;;;10.10;;
68803;SDS011;55787;52.678;13.314;2023-03-01T07:15:20;30.98;;;9.55;;
68803;SDS011;55787;52.678;13.314;2023-03-01T07:17:47;34.00;;;11.10;;
68803;SDS011;55787;52.678;13.314;2023-03-01T07:20:17;24.80;;;9.00;;
68803;SDS011;55787;52.678;13.314;2023-03-01T07:22:48;28.08;;;10.40;;
68803;SDS011;55787;52.678;13.314;2023-03-01T07:25:15;27.80;;;9.88;;
68803;SDS011;55787;52.678;13.314;2023-03-01T07:27:41;29.55;;;11.43;;
68803;SDS011;55787;52.678;13.314;2023-03-01T07:30:08;31.73;;;11.30;;
68803;SDS011;55787;52.678;13.314;2023-03-01T07:32:36;27.70;;;11.37;;
68803;SDS011;55787;52.678;13.314;2023-03-01T07:35:02;26.33;;;11.05;;
68803;SDS011;55787;52.678;13.314;2023-03-01T07:37:29;26.55;;;11.57;;
68803;SDS011;55787;52.678;13.314;2023-03-01T07:39:56;28.77;;;11.85;;
68803;SDS011;55787;52.678;13.314;2023-03-01T07:42:23;24.45;;;10.73;;
68803;SDS011;55787;52.678;13.314;2023-03-01T07:44:49;23.00;;;10.43;;
68803;SDS011;55787;52.678;13.314;2023-03-01T07:47:16;24.70;;;10.98;;
68803;SDS011;55787;52.678;13.314;2023-03-01T07:49:43;21.10;;;9.80;;
68803;SDS011;55787;52.678;13.314;2023-03-01T07:52:10;23.95;;;9.70;;
68803;SDS011;55787;52.678;13.314;2023-03-01T07:54:38;24.42;;;10.15;;
68803;SDS011;55787;52.678;13.314;2023-03-01T07:57:05;24.73;;;9.75;;
68803;SDS011;55787;52.678;13.314;2023-03-01T07:59:31;24.42;;;10.68;;
68803;SDS011;55787;52.678;13.314;2023-03-01T08:01:58;23.50;;;9.85;;
68803;SDS011;55787;52.678;13.314;2023-03-01T08:04:25;21.02;;;9.27;;
68803;SDS011;55787;52.678;13.314;2023-03-01T08:06:53;21.38;;;9.30;;
68803;SDS011;55787;52.678;13.314;2023-03-01T08:09:20;22.88;;;9.50;;
68803;SDS011;55787;52.678;13.314;2023-03-01T08:11:47;22.55;;;9.15;;
68803;SDS011;55787;52.678;13.314;2023-03-01T08:14:14;24.92;;;9.88;;
68803;SDS011;55787;52.678;13.314;2023-03-01T08:16:41;20.83;;;8.82;;
68803;SDS011;55787;52.678;13.314;2023-03-01T08:19:10;19.75;;;8.32;;
68803;SDS011;55787;52.678;13.314;2023-03-01T08:21:38;20.23;;;7.77;;
68803;SDS011;55787;52.678;13.314;2023-03-01T08:24:05;18.75;;;7.22;;
68803;SDS011;55787;52.678;13.314;2023-03-01T08:26:32;13.80;;;5.00;;
68803;SDS011;55787;52.678;13.314;2023-03-01T08:29:00;11.63;;;4.10;;
68803;SDS011;55787;52.678;13.314;2023-03-01T08:31:34;11.27;;;3.45;;
68803;SDS011;55787;52.678;13.314;2023-03-01T08:34:07;10.60;;;3.00;;
68803;SDS011;55787;52.678;13.314;2023-03-01T08:36:38;10.63;;;2.80;;
68803;SDS011;55787;52.678;13.314;2023-03-01T08:39:06;10.70;;;3.33;;
68803;SDS011;55787;52.678;13.314;2023-03-01T08:41:35;11.98;;;3.70;;
68803;SDS011;55787;52.678;13.314;2023-03-01T08:44:02;10.43;;;3.30;;
68803;SDS011;55787;52.678;13.314;2023-03-01T08:46:36;10.87;;;3.67;;
68803;SDS011;55787;52.678;13.314;2023-03-01T08:49:04;12.82;;;3.88;;
68803;SDS011;55787;52.678;13.314;2023-03-01T08:51:33;16.75;;;4.15;;
68803;SDS011;55787;52.678;13.314;2023-03-01T08:54:06;12.13;;;4.10;;
68803;SDS011;55787;52.678;13.314;2023-03-01T08:56:36;13.52;;;4.13;;
68803;SDS011;55787;52.678;13.314;2023-03-01T08:59:03;12.57;;;3.85;;
68803;SDS011;55787;52.678;13.314;2023-03-01T09:01:30;12.15;;;4.03;;
68803;SDS011;55787;52.678;13.314;2023-03-01T09:03:57;9.93;;;3.72;;
68803;SDS011;55787;52.678;13.314;2023-03-01T09:06:24;10.13;;;4.15;;
68803;SDS011;55787;52.678;13.314;2023-03-01T09:08:51;11.00;;;3.65;;
68803;SDS011;55787;52.678;13.314;2023-03-01T09:11:19;10.15;;;4.22;;
68803;SDS011;55787;52.678;13.314;2023-03-01T09:13:48;11.13;;;3.30;;
68803;SDS011;55787;52.678;13.314;2023-03-01T09:16:16;11.05;;;3.47;;
68803;SDS011;55787;52.678;13.314;2023-03-01T09:18:48;10.27;;;3.30;;
68803;SDS011;55787;52.678;13.314;2023-03-01T09:21:16;14.48;;;5.32;;
68803;SDS011;55787;52.678;13.314;2023-03-01T09:23:56;9.70;;;3.50;;
68803;SDS011;55787;52.678;13.314;2023-03-01T09:26:23;10.45;;;3.45;;
68803;SDS011;55787;52.678;13.314;2023-03-01T09:28:53;9.27;;;2.60;;
68803;SDS011;55787;52.678;13.314;2023-03-01T09:31:21;8.50;;;2.88;;
68803;SDS011;55787;52.678;13.314;2023-03-01T09:33:50;9.00;;;3.10;;
68803;SDS011;55787;52.678;13.314;2023-03-01T09:36:19;9.00;;;3.10;;
68803;SDS011;55787;52.678;13.314;2023-03-01T09:38:48;8.10;;;3.13;;
68803;SDS011;55787;52.678;13.314;2023-03-01T09:43:43;9.40;;;3.20;;
68803;SDS011;55787;52.678;13.314;2023-03-01T09:46:13;8.15;;;3.08;;
68803;SDS011;55787;52.678;13.314;2023-03-01T09:48:50;11.38;;;3.00;;
68803;SDS011;55787;52.678;13.314;2023-03-01T09:51:26;8.60;;;2.80;;
68803;SDS011;55787;52.678;13.314;2023-03-01T09:53:55;7.93;;;3.03;;
68803;SDS011;55787;52.678;13.314;2023-03-01T09:56:28;9.63;;;3.50;;
68803;SDS011;55787;52.678;13.314;2023-03-01T10:04:46;9.18;;;3.38;;
68803;SDS011;55787;52.678;13.314;2023-03-01T10:07:24;8.55;;;3.22;;
68803;SDS011;55787;52.678;13.314;2023-03-01T10:09:59;8.35;;;3.40;;
68803;SDS011;55787;52.678;13.314;2023-03-01T10:12:27;8.90;;;3.22;;
68803;SDS011;55787;52.678;13.314;2023-03-01T10:15:02;9.32;;;4.28;;
68803;SDS011;55787;52.678;13.314;2023-03-01T10:23:02;8.95;;;3.22;;
68803;SDS011;55787;52.678;13.314;2023-03-01T10:28:16;7.85;;;2.80;;
68803;SDS011;55787;52.678;13.314;2023-03-01T10:30:46;7.70;;;2.95;;
68803;SDS011;55787;52.678;13.314;2023-03-01T10:33:23;7.57;;;3.05;;
68803;SDS011;55787;52.678;13.314;2023-03-01T10:35:50;7.40;;;3.03;;
68803;SDS011;55787;52.678;13.314;2023-03-01T10:38:18;8.13;;;3.47;;
68803;SDS011;55787;52.678;13.314;2023-03-01T10:40:50;8.10;;;3.00;;
68803;SDS011;55787;52.678;13.314;2023-03-01T10:43:25;8.23;;;3.20;;
68803;SDS011;55787;52.678;13.314;2023-03-01T10:45:57;7.13;;;2.30;;
68803;SDS011;55787;52.678;13.314;2023-03-01T10:48:25;8.05;;;2.30;;
68803;SDS011;55787;52.678;13.314;2023-03-01T10:53:27;9.77;;;3.60;;
68803;SDS011;55787;52.678;13.314;2023-03-01T10:56:04;7.95;;;2.92;;
68803;SDS011;55787;52.678;13.314;2023-03-01T10:58:33;7.40;;;2.30;;
68803;SDS011;55787;52.678;13.314;2023-03-01T11:01:03;8.35;;;2.00;;
68803;SDS011;55787;52.678;13.314;2023-03-01T11:06:36;7.00;;;1.90;;
68803;SDS011;55787;52.678;13.314;2023-03-01T11:09:14;9.13;;;2.10;;
68803;SDS011;55787;52.678;13.314;2023-03-01T11:11:51;6.80;;;1.60;;
68803;SDS011;55787;52.678;13.314;2023-03-01T11:14:20;8.50;;;2.10;;
68803;SDS011;55787;52.678;13.314;2023-03-01T11:17:03;7.72;;;1.70;;
68803;SDS011;55787;52.678;13.314;2023-03-01T11:19:41;7.80;;;1.52;;
68803;SDS011;55787;52.678;13.314;2023-03-01T11:22:19;7.15;;;1.60;;
68803;SDS011;55787;52.678;13.314;2023-03-01T11:24:51;6.82;;;1.88;;
68803;SDS011;55787;52.678;13.314;2023-03-01T11:27:36;7.15;;;1.70;;
68803;SDS011;55787;52.678;13.314;2023-03-01T11:30:12;7.18;;;1.70;;
68803;SDS011;55787;52.678;13.314;2023-03-01T11:32:43;7.65;;;1.60;;
68803;SDS011;55787;52.678;13.314;2023-03-01T11:35:18;9.38;;;2.10;;
68803;SDS011;55787;52.678;13.314;2023-03-01T11:38:32;7.65;;;1.75;;
68803;SDS011;55787;52.678;13.314;2023-03-01T11:40:46;8.18;;;1.67;;
68803;SDS011;55787;52.678;13.314;2023-03-01T11:43:20;8.50;;;2.00;;
68803;SDS011;55787;52.678;13.314;2023-03-01T11:46:11;7.03;;;1.60;;
68803;SDS011;55787;52.678;13.314;2023-03-01T11:52:30;7.38;;;1.80;;
68803;SDS011;55787;52.678;13.314;2023-03-01T12:03:22;6.75;;;1.90;;
68803;SDS011;55787;52.678;13.314;2023-03-01T12:09:14;7.47;;;2.08;;
68803;SDS011;55787;52.678;13.314;2023-03-01T12:14:13;7.40;;;2.03;;
68803;SDS011;55787;52.678;13.314;2023-03-01T12:17:07;7.55;;;2.00;;
68803;SDS011;55787;52.678;13.314;2023-03-01T12:19:55;7.00;;;2.10;;
68803;SDS011;55787;52.678;13.314;2023-03-01T12:49:15;8.02;;;1.95;;
68803;SDS011;55787;52.678;13.314;2023-03-01T12:51:56;6.88;;;1.90;;
68803;SDS011;55787;52.678;13.314;2023-03-01T12:54:31;7.38;;;1.75;;
68803;SDS011;55787;52.678;13.314;2023-03-01T13:07:53;5.07;;;1.15;;
68803;SDS011;55787;52.678;13.314;2023-03-01T13:13:31;5.70;;;1.30;;
68803;SDS011;55787;52.678;13.314;2023-03-01T13:15:58;6.75;;;1.50;;
68803;SDS011;55787;52.678;13.314;2023-03-01T13:19:12;5.85;;;1.20;;
68803;SDS011;55787;52.678;13.314;2023-03-01T13:21:42;5.78;;;1.10;;
68803;SDS011;55787;52.678;13.314;2023-03-01T13:32:23;6.45;;;1.20;;
68803;SDS011;55787;52.678;13.314;2023-03-01T13:37:43;5.03;;;1.10;;
68803;SDS011;55787;52.678;13.314;2023-03-01T13:42:48;4.22;;;0.50;;
68803;SDS011;55787;52.678;13.314;2023-03-01T13:45:40;5.30;;;0.73;;
68803;SDS011;55787;52.678;13.314;2023-03-01T13:50:59;4.97;;;0.65;;
68803;SDS011;55787;52.678;13.314;2023-03-01T13:53:30;5.82;;;0.80;;
68803;SDS011;55787;52.678;13.314;2023-03-01T13:58:44;5.43;;;1.08;;
68803;SDS011;55787;52.678;13.314;2023-03-01T14:01:33;6.25;;;1.17;;
68803;SDS011;55787;52.678;13.314;2023-03-01T14:04:02;5.43;;;1.13;;
68803;SDS011;55787;52.678;13.314;2023-03-01T14:06:31;6.65;;;1.40;;
68803;SDS011;55787;52.678;13.314;2023-03-01T14:09:01;6.63;;;1.60;;
68803;SDS011;55787;52.678;13.314;2023-03-01T14:17:41;6.95;;;1.55;;
68803;SDS011;55787;52.678;13.314;2023-03-01T14:20:18;5.65;;;1.20;;
68803;SDS011;55787;52.678;13.314;2023-03-01T14:22:53;6.78;;;1.33;;
68803;SDS011;55787;52.678;13.314;2023-03-01T14:25:29;5.82;;;1.20;;
68803;SDS011;55787;52.678;13.314;2023-03-01T14:28:16;6.32;;;1.50;;
68803;SDS011;55787;52.678;13.314;2023-03-01T14:30:47;7.10;;;1.75;;
68803;SDS011;55787;52.678;13.314;2023-03-01T14:33:36;7.15;;;1.63;;
68803;SDS011;55787;52.678;13.314;2023-03-01T14:36:10;7.03;;;1.48;;
68803;SDS011;55787;52.678;13.314;2023-03-01T14:38:44;6.30;;;1.63;;
68803;SDS011;55787;52.678;13.314;2023-03-01T14:41:18;6.97;;;1.67;;
68803;SDS011;55787;52.678;13.314;2023-03-01T14:43:49;6.63;;;2.30;;
68803;SDS011;55787;52.678;13.314;2023-03-01T14:46:21;6.93;;;1.40;;
68803;SDS011;55787;52.678;13.314;2023-03-01T14:48:53;6.68;;;1.30;;
68803;SDS011;55787;52.678;13.314;2023-03-01T14:51:22;7.15;;;1.40;;
68803;SDS011;55787;52.678;13.314;2023-03-01T14:53:49;5.97;;;1.30;;
68803;SDS011;55787;52.678;13.314;2023-03-01T14:56:17;5.70;;;1.02;;
68803;SDS011;55787;52.678;13.314;2023-03-01T14:58:45;5.70;;;1.35;;
68803;SDS011;55787;52.678;13.314;2023-03-01T15:01:15;6.63;;;1.38;;
68803;SDS011;55787;52.678;13.314;2023-03-01T15:03:49;6.57;;;1.40;;
68803;SDS011;55787;52.678;13.314;2023-03-01T15:06:17;7.63;;;1.80;;
68803;SDS011;55787;52.678;13.314;2023-03-01T15:08:47;6.68;;;1.90;;
68803;SDS011;55787;52.678;13.314;2023-03-01T15:11:17;6.68;;;1.92;;
68803;SDS011;55787;52.678;13.314;2023-03-01T15:13:45;7.03;;;2.10;;
68803;SDS011;55787;52.678;13.314;2023-03-01T15:16:18;7.97;;;2.00;;
68803;SDS011;55787;52.678;13.314;2023-03-01T15:18:50;7.35;;;2.10;;
68803;SDS011;55787;52.678;13.314;2023-03-01T15:21:21;9.10;;;2.17;;
68803;SDS011;55787;52.678;13.314;2023-03-01T15:23:55;6.95;;;1.60;;
68803;SDS011;55787;52.678;13.314;2023-03-01T15:26:28;7.60;;;1.80;;
68803;SDS011;55787;52.678;13.314;2023-03-01T15:28:59;8.07;;;1.75;;
68803;SDS011;55787;52.678;13.314;2023-03-01T15:31:31;7.82;;;2.13;;
68803;SDS011;55787;52.678;13.314;2023-03-01T15:36:59;7.03;;;1.90;;
68803;SDS011;55787;52.678;13.314;2023-03-01T15:41:57;6.72;;;1.60;;
68803;SDS011;55787;52.678;13.314;2023-03-01T15:44:27;8.55;;;1.60;;
68803;SDS011;55787;52.678;13.314;2023-03-01T15:47:21;7.22;;;1.42;;
68803;SDS011;55787;52.678;13.314;2023-03-01T15:49:56;6.28;;;1.27;;
68803;SDS011;55787;52.678;13.314;2023-03-01T15:52:29;8.07;;;1.52;;
68803;SDS011;55787;52.678;13.314;2023-03-01T15:55:03;7.25;;;1.40;;
68803;SDS011;55787;52.678;13.314;2023-03-01T15:57:42;6.80;;;1.70;;
68803;SDS011;55787;52.678;13.314;2023-03-01T16:00:09;10.68;;;3.72;;
68803;SDS011;55787;52.678;13.314;2023-03-01T16:02:40;16.25;;;5.75;;
68803;SDS011;55787;52.678;13.314;2023-03-01T16:05:12;15.52;;;5.20;;
68803;SDS011;55787;52.678;13.314;2023-03-01T16:07:43;11.75;;;3.80;;
68803;SDS011;55787;52.678;13.314;2023-03-01T16:10:10;8.15;;;2.05;;
68803;SDS011;55787;52.678;13.314;2023-03-01T16:12:37;8.15;;;2.10;;
68803;SDS011;55787;52.678;13.314;2023-03-01T16:15:10;8.32;;;2.47;;
68803;SDS011;55787;52.678;13.314;2023-03-01T16:17:44;8.02;;;1.70;;
68803;SDS011;55787;52.678;13.314;2023-03-01T16:20:11;6.80;;;1.20;;
68803;SDS011;55787;52.678;13.314;2023-03-01T16:22:53;6.47;;;1.10;;
68803;SDS011;55787;52.678;13.314;2023-03-01T16:25:20;5.97;;;1.00;;
68803;SDS011;55787;52.678;13.314;2023-03-01T16:27:49;6.35;;;1.10;;
68803;SDS011;55787;52.678;13.314;2023-03-01T16:30:19;7.45;;;1.30;;
68803;SDS011;55787;52.678;13.314;2023-03-01T16:32:47;7.45;;;1.35;;
68803;SDS011;55787;52.678;13.314;2023-03-01T16:35:15;7.07;;;1.40;;
68803;SDS011;55787;52.678;13.314;2023-03-01T16:37:44;8.85;;;1.70;;
68803;SDS011;55787;52.678;13.314;2023-03-01T16:40:24;7.93;;;1.55;;
68803;SDS011;55787;52.678;13.314;2023-03-01T16:42:53;7.18;;;1.50;;